Accueil
Images satellite Prévisions 10 joursClimatMétéo marine Cyclones Foudre AéroportsFAQ Actualités A propos
Météo : Europe Afrique Amérique du Nord Amérique du Sud Asie Australie-Océanie Autres
Langues Contact

Bauru, São Paulo, Brésil

latitude: 22-19S, longitude: 049-04W, altitude: 590 m


METAR: SBBU 012300Z 00000KT CAVOK 27/21 Q1016
TAF: SBBU 011500Z 0118/0206 15006KT CAVOK TX30/0118Z TN24/0206Z RMK PCF

Heure: 21:05 (00:05 UTC)

Observation

Le bulletin a été fait il y a 1 heure et 5 minutes, à 23:00 UTC
Vent calme
Température 27°C
Humidité 70%
Pression 1016 hPa
Visibilité 10 km ou plus
pas de nuages en-dessous de 1500 mètres et pas de cumulonimbus.

Changer d'unités

Prévision

Le bulletin a été fait il y a 9 heures et 5 minutes, à 15:00 UTC
Prévision valable du 01 à 18 UTC au 02 à 06 UTC
Vent 6 kt de sud/sud-est
Visibilité 10 km ou plus
pas de nuages en-dessous de 1500 mètres et pas de cumulonimbus.
Les informations qui figurent sur ce site font l'objet d'une clause de non-responsabilité
Météo : Europe Afrique Amérique du Nord Amérique du Sud Asie Australie-Océanie Autres
Images satellite Prévisions 10 joursClimatMétéo marine Cyclones Foudre AéroportsFAQ Langues Contact Actualités A propos